Terminal Aerodrome Forecast
Issued by NWS Sioux Falls, SD

Home | Current Version | Previous Version | Text Only | Print | Product List | Glossary On
Versions: 1 2 3 4 5 6 7 8 9 10 11 12 13 14 15 16
000
FTUS43 KFSD 271731
TAFHON
TAF
KHON 271731Z 2718/2818 22008KT P6SM SHRA SCT015 BKN050
      TEMPO 2718/2719 P6SM TSRA BKN015CB
     FM272000 35008KT P6SM SHRA BKN030
     FM272300 36004KT P6SM SCT030 SCT100
     FM280600 VRB04KT P6SM BKN035
     FM281500 35005KT P6SM SHRA OVC030=

USA.gov is the U.S. government's official web portal to all federal, state and local government web resources and services.